Time;durP1;ratioP1;P1;durP2;ratioP2;P2;SDS_P1;SDS_P2;PMS_P1;PMS_P2;Temp;Humidity;BMP_temperature;BMP_pressure;BME280_temperature;BME280_humidity;BME280_pressure;Samples;Min_cycle;Max_cycle;Signal;HPM_P1;HPM_P2
2024/01/30 00:00:42;;;;;;;21.50;7.10;;;0.20;37.60;;;;;;5066300;28;46842;-80
2024/01/30 00:03:08;;;;;;;10.97;5.50;;;0.20;37.50;;;;;;5050847;28;46558;-78
2024/01/30 00:05:34;;;;;;;12.33;5.77;;;0.20;37.60;;;;;;5047977;28;46578;-78
2024/01/30 00:07:59;;;;;;;15.63;5.67;;;0.20;37.60;;;;;;5068522;28;46530;-78
2024/01/30 00:10:25;;;;;;;8.73;4.83;;;0.20;37.80;;;;;;5070083;28;46631;-78
2024/01/30 00:12:50;;;;;;;10.50;5.77;;;0.20;37.80;;;;;;5068281;28;46547;-79
2024/01/30 00:15:16;;;;;;;9.10;5.07;;;0.20;37.90;;;;;;5067599;27;46448;-78
2024/01/30 00:17:41;;;;;;;11.90;5.70;;;0.10;37.90;;;;;;5065203;28;46961;-78
2024/01/30 00:20:08;;;;;;;8.90;5.30;;;0.10;38.10;;;;;;5068406;28;46775;-78
2024/01/30 00:22:34;;;;;;;10.40;4.70;;;0.00;39.40;;;;;;5064546;28;46453;-80
2024/01/30 00:25:00;;;;;;;9.50;5.47;;;0.00;38.30;;;;;;5066787;28;46461;-79
2024/01/30 00:27:27;;;;;;;9.20;5.00;;;0.00;38.40;;;;;;5068847;27;46683;-80
2024/01/30 00:29:53;;;;;;;8.88;5.25;;;-0.10;38.50;;;;;;5070209;28;46698;-80
2024/01/30 00:32:19;;;;;;;11.03;4.97;;;-0.10;38.50;;;;;;5068748;28;46407;-80
2024/01/30 00:34:44;;;;;;;14.95;4.72;;;-0.10;38.60;;;;;;5074011;28;46850;-81
2024/01/30 00:37:10;;;;;;;7.80;4.77;;;-0.10;38.60;;;;;;5069620;28;46412;-80
2024/01/30 00:39:36;;;;;;;9.53;5.47;;;-0.10;38.50;;;;;;5067956;28;46624;-80
2024/01/30 00:42:01;;;;;;;12.23;4.93;;;0.00;38.60;;;;;;5068905;28;46498;-79
2024/01/30 00:44:27;;;;;;;9.60;4.57;;;0.00;38.40;;;;;;5064831;28;45814;-79
2024/01/30 00:46:53;;;;;;;7.70;4.77;;;0.10;38.40;;;;;;5065342;28;46535;-79
2024/01/30 00:49:18;;;;;;;9.10;4.73;;;0.00;38.30;;;;;;5068185;28;47135;-79
2024/01/30 00:51:44;;;;;;;10.60;5.00;;;0.00;38.30;;;;;;5069976;28;46364;-79
2024/01/30 00:54:09;;;;;;;8.50;4.57;;;0.00;38.50;;;;;;5068298;27;46502;-80
2024/01/30 00:56:35;;;;;;;12.97;4.60;;;-0.10;38.60;;;;;;5055485;28;46691;-81
2024/01/30 00:59:00;;;;;;;8.43;4.63;;;0.00;38.60;;;;;;5065609;28;46742;-80
2024/01/30 01:01:26;;;;;;;10.13;4.43;;;0.00;38.40;;;;;;5066268;27;46706;-78
2024/01/30 01:03:52;;;;;;;8.87;4.50;;;0.00;38.30;;;;;;5071643;28;46466;-79
2024/01/30 01:06:17;;;;;;;5.77;4.20;;;0.00;38.40;;;;;;5065921;28;46370;-80
2024/01/30 01:08:43;;;;;;;10.87;4.77;;;0.00;38.50;;;;;;5063890;28;46487;-79
2024/01/30 01:11:08;;;;;;;6.87;4.20;;;-0.10;38.60;;;;;;5055018;28;46550;-79
2024/01/30 01:13:34;;;;;;;7.40;4.47;;;-0.10;38.70;;;;;;5063691;28;46446;-79
2024/01/30 01:15:59;;;;;;;8.20;4.63;;;-0.20;38.90;;;;;;5065549;28;46585;-79
2024/01/30 01:18:25;;;;;;;7.77;4.60;;;-0.20;39.00;;;;;;5065874;28;47015;-79
2024/01/30 01:20:50;;;;;;;10.97;4.63;;;-0.20;39.10;;;;;;5065000;28;46516;-79
2024/01/30 01:23:16;;;;;;;8.10;5.00;;;-0.20;39.10;;;;;;5066235;28;46427;-80
2024/01/30 01:25:41;;;;;;;9.57;4.57;;;-0.20;39.10;;;;;;5065560;27;46474;-79
2024/01/30 01:28:07;;;;;;;7.90;4.53;;;-0.20;39.00;;;;;;5053629;28;49124;-80
2024/01/30 01:30:32;;;;;;;8.97;4.63;;;-0.20;39.00;;;;;;5064016;28;46453;-80
2024/01/30 01:33:00;;;;;;;9.50;4.57;;;-0.20;39.10;;;;;;5049532;28;46421;-79
2024/01/30 01:35:26;;;;;;;9.27;4.93;;;-0.20;39.30;;;;;;5065198;28;46503;-79
2024/01/30 01:37:54;;;;;;;13.70;4.03;;;-0.30;39.50;;;;;;5065053;28;47919;-80
2024/01/30 01:40:24;;;;;;;8.45;4.38;;;-0.30;39.40;;;;;;5067962;28;46796;-78
2024/01/30 01:42:54;;;;;;;8.73;4.32;;;-0.30;39.40;;;;;;5070438;28;45966;-80
2024/01/30 01:45:20;;;;;;;9.40;4.63;;;-0.30;39.50;;;;;;5028880;28;1127613;-80
2024/01/30 01:47:50;;;;;;;8.63;4.57;;;-0.40;39.60;;;;;;5068823;28;47429;-79
2024/01/30 01:50:19;;;;;;;6.68;3.67;;;-0.30;39.90;;;;;;5069555;27;46460;-78
2024/01/30 01:52:47;;;;;;;5.78;3.50;;;-0.30;39.70;;;;;;5071238;28;46396;-79
2024/01/30 01:55:14;;;;;;;5.85;3.17;;;-0.30;39.40;;;;;;5056341;28;46583;-80
2024/01/30 01:57:40;;;;;;;9.05;4.70;;;-0.30;39.30;;;;;;5069509;27;49107;-79
2024/01/30 02:00:07;;;;;;;7.50;4.22;;;-0.30;39.30;;;;;;5073728;28;46399;-78
2024/01/30 02:02:35;;;;;;;7.38;3.90;;;-0.30;39.20;;;;;;5071924;28;46403;-80
2024/01/30 02:05:01;;;;;;;7.30;3.97;;;-0.20;39.30;;;;;;5070798;27;46400;-80
2024/01/30 02:07:28;;;;;;;8.77;4.27;;;-0.20;39.40;;;;;;5069418;28;46831;-79
2024/01/30 02:09:54;;;;;;;8.35;4.35;;;-0.20;39.50;;;;;;5072010;28;46557;-81
2024/01/30 02:12:19;;;;;;;10.00;4.53;;;-0.30;39.50;;;;;;5074600;28;46422;-81
2024/01/30 02:14:49;;;;;;;6.10;4.20;;;-0.30;39.80;;;;;;5077385;27;46863;-81
2024/01/30 02:17:17;;;;;;;7.80;3.80;;;-0.40;40.00;;;;;;5071582;27;46244;-81
2024/01/30 02:19:43;;;;;;;7.13;3.83;;;-0.40;40.10;;;;;;5069749;27;46472;-82
2024/01/30 02:22:09;;;;;;;9.27;4.17;;;-0.40;40.10;;;;;;5074557;28;46756;-78
2024/01/30 02:24:35;;;;;;;6.47;4.30;;;-0.40;40.10;;;;;;5071749;28;46605;-79
2024/01/30 02:27:00;;;;;;;6.00;4.00;;;-0.40;40.10;;;;;;5052910;28;48300;-80
2024/01/30 02:29:26;;;;;;;6.37;3.63;;;-0.40;40.20;;;;;;5074688;28;46452;-80
2024/01/30 02:31:52;;;;;;;6.43;3.67;;;-0.40;40.10;;;;;;5075489;28;46494;-80
2024/01/30 02:34:19;;;;;;;12.00;4.67;;;-0.30;40.20;;;;;;5074938;28;46621;-79
2024/01/30 02:36:44;;;;;;;6.63;3.40;;;-0.30;40.00;;;;;;5062805;28;47485;-81
2024/01/30 02:39:10;;;;;;;6.13;4.10;;;-0.30;39.90;;;;;;5087123;28;46621;-80
2024/01/30 02:41:36;;;;;;;14.87;3.87;;;-0.30;39.80;;;;;;5077808;28;46407;-78
2024/01/30 02:44:03;;;;;;;9.13;4.03;;;-0.30;39.80;;;;;;5069484;28;46541;-80
2024/01/30 02:46:28;;;;;;;5.80;3.58;;;-0.20;39.80;;;;;;5066208;27;46210;-79
2024/01/30 02:48:54;;;;;;;7.77;4.10;;;-0.20;39.80;;;;;;5050691;27;46797;-79
2024/01/30 02:51:20;;;;;;;6.03;3.43;;;-0.30;39.70;;;;;;5071040;28;46577;-79
2024/01/30 02:53:45;;;;;;;5.33;3.50;;;-0.30;41.10;;;;;;5069537;28;46588;-80
2024/01/30 02:56:13;;;;;;;9.13;3.67;;;-0.30;40.00;;;;;;5072262;28;46548;-82
2024/01/30 02:58:40;;;;;;;4.55;3.10;;;-0.40;40.00;;;;;;5070342;28;46454;-81
2024/01/30 03:01:08;;;;;;;5.47;3.80;;;-0.40;40.20;;;;;;5070624;28;46396;-80
2024/01/30 03:03:36;;;;;;;6.30;3.65;;;-0.40;40.30;;;;;;5051649;28;46782;-79
2024/01/30 03:06:02;;;;;;;6.80;3.85;;;-0.40;40.50;;;;;;5069741;28;46610;-82
2024/01/30 03:08:28;;;;;;;6.65;3.72;;;-0.40;40.40;;;;;;5067448;28;46506;-77
2024/01/30 03:10:54;;;;;;;7.13;4.20;;;-0.40;40.40;;;;;;5071323;28;46322;-80
2024/01/30 03:13:20;;;;;;;7.00;4.30;;;-0.40;40.20;;;;;;5058510;28;45958;-78
2024/01/30 03:15:45;;;;;;;7.18;3.97;;;-0.40;40.20;;;;;;5069593;28;46884;-79
2024/01/30 03:18:11;;;;;;;7.27;3.80;;;-0.40;40.20;;;;;;5072246;28;46510;-79
2024/01/30 03:20:36;;;;;;;7.03;3.70;;;-0.40;40.20;;;;;;5061450;28;46619;-79
2024/01/30 03:23:02;;;;;;;8.00;4.03;;;-0.40;40.20;;;;;;5069263;27;46738;-77
2024/01/30 03:25:28;;;;;;;8.45;3.80;;;-0.40;40.30;;;;;;5070595;27;46207;-79
2024/01/30 03:27:54;;;;;;;5.50;3.43;;;-0.40;40.40;;;;;;5069529;28;46865;-77
2024/01/30 03:30:19;;;;;;;7.10;3.80;;;-0.40;40.50;;;;;;5054278;28;46534;-77
2024/01/30 03:32:45;;;;;;;7.97;3.53;;;-0.40;40.50;;;;;;5068476;27;46803;-80
2024/01/30 03:35:10;;;;;;;6.40;3.60;;;-0.40;40.60;;;;;;5068629;28;47393;-78
2024/01/30 03:37:36;;;;;;;5.50;3.47;;;-0.50;40.60;;;;;;5070923;28;46300;-79
2024/01/30 03:40:03;;;;;;;6.43;3.73;;;-0.50;41.00;;;;;;5070021;27;46458;-77
2024/01/30 03:42:29;;;;;;;7.70;4.13;;;-0.50;41.00;;;;;;5069801;28;46717;-79
2024/01/30 03:44:55;;;;;;;5.00;3.23;;;-0.50;41.10;;;;;;5071653;28;47639;-77
2024/01/30 03:47:21;;;;;;;6.70;3.65;;;-0.50;41.00;;;;;;5061677;28;46558;-79
2024/01/30 03:49:47;;;;;;;6.13;3.70;;;-0.50;41.00;;;;;;5070567;28;46473;-78
2024/01/30 03:52:12;;;;;;;5.57;3.43;;;-0.50;40.90;;;;;;5050621;28;46391;-81
2024/01/30 03:54:38;;;;;;;5.90;3.63;;;-0.50;40.90;;;;;;5070911;28;46542;-77
2024/01/30 03:57:04;;;;;;;10.20;4.10;;;-0.50;40.90;;;;;;5050694;28;46828;-81
2024/01/30 03:59:30;;;;;;;5.45;3.47;;;-0.50;41.00;;;;;;5069343;28;46458;-80
2024/01/30 04:01:55;;;;;;;5.20;3.57;;;-0.50;40.90;;;;;;5068945;27;46521;-80
2024/01/30 04:04:21;;;;;;;7.23;3.97;;;-0.40;40.80;;;;;;5071018;28;47308;-80
2024/01/30 04:06:46;;;;;;;5.90;3.63;;;-0.40;40.50;;;;;;5068313;28;46404;-80
2024/01/30 04:09:13;;;;;;;6.77;3.80;;;-0.40;40.50;;;;;;5070185;28;46982;-79
2024/01/30 04:11:39;;;;;;;5.60;3.53;;;-0.40;40.50;;;;;;5071310;28;46558;-81
2024/01/30 04:14:05;;;;;;;5.22;3.00;;;-0.30;40.30;;;;;;5068130;27;46495;-82
2024/01/30 04:16:30;;;;;;;8.70;4.37;;;-0.30;40.30;;;;;;5061371;28;46727;-82
2024/01/30 04:18:56;;;;;;;8.13;3.63;;;-0.30;40.20;;;;;;5068071;27;46932;-81
2024/01/30 04:21:22;;;;;;;5.23;3.30;;;-0.30;40.20;;;;;;5070711;28;46935;-82
2024/01/30 04:23:48;;;;;;;6.70;3.20;;;-0.30;40.30;;;;;;5071729;28;46664;-80
2024/01/30 04:26:14;;;;;;;7.33;4.00;;;-0.30;40.30;;;;;;5072069;28;46366;-80
2024/01/30 04:28:42;;;;;;;5.03;3.47;;;-0.30;40.40;;;;;;5066651;28;46886;-80
2024/01/30 04:31:07;;;;;;;7.47;4.00;;;-0.20;40.40;;;;;;5065873;28;46888;-79
2024/01/30 04:33:33;;;;;;;6.13;2.93;;;-0.20;40.40;;;;;;5068058;28;46279;-80
2024/01/30 04:35:58;;;;;;;5.47;2.70;;;-0.20;40.30;;;;;;5062031;28;46437;-81
2024/01/30 04:38:24;;;;;;;7.47;3.13;;;-0.20;40.40;;;;;;5065031;28;46508;-80
2024/01/30 04:40:49;;;;;;;6.70;3.33;;;-0.20;40.50;;;;;;5065812;28;46983;-79
2024/01/30 04:43:15;;;;;;;6.70;3.73;;;-0.20;40.40;;;;;;5066729;28;46768;-79
2024/01/30 04:45:41;;;;;;;9.98;3.90;;;-0.20;40.60;;;;;;5065029;28;47285;-82
2024/01/30 04:48:07;;;;;;;5.80;3.43;;;-0.20;40.50;;;;;;5064709;27;46354;-79
2024/01/30 04:50:32;;;;;;;4.90;3.50;;;-0.20;40.50;;;;;;5063066;28;46825;-81
2024/01/30 04:52:58;;;;;;;6.27;3.57;;;-0.20;40.60;;;;;;5047356;28;48130;-80
2024/01/30 04:55:23;;;;;;;5.47;3.13;;;-0.30;40.60;;;;;;5065280;28;46483;-80
2024/01/30 04:57:49;;;;;;;4.30;2.63;;;-0.30;40.70;;;;;;5064007;28;46666;-82
2024/01/30 05:00:15;;;;;;;5.70;3.33;;;-0.30;40.60;;;;;;5064930;28;46517;-80
2024/01/30 05:02:41;;;;;;;6.25;3.55;;;-0.30;40.70;;;;;;5062841;27;48131;-78
2024/01/30 05:05:07;;;;;;;7.00;2.87;;;-0.30;41.10;;;;;;5064110;28;46483;-78
2024/01/30 05:07:33;;;;;;;7.75;3.50;;;-0.30;41.10;;;;;;5067033;27;46462;-78
2024/01/30 05:09:58;;;;;;;4.03;2.70;;;-0.30;41.00;;;;;;5065440;28;46689;-79
2024/01/30 05:12:24;;;;;;;4.00;3.30;;;-0.30;40.80;;;;;;5065614;28;46724;-79
2024/01/30 05:14:49;;;;;;;6.23;3.13;;;-0.30;40.70;;;;;;5064146;27;46502;-80
2024/01/30 05:17:15;;;;;;;4.97;3.20;;;-0.20;40.90;;;;;;5065656;28;46780;-79
2024/01/30 05:19:40;;;;;;;4.03;2.67;;;-0.20;40.70;;;;;;5065961;28;46583;-81
2024/01/30 05:22:06;;;;;;;6.60;3.03;;;-0.20;40.70;;;;;;5067013;27;46447;-80
2024/01/30 05:24:32;;;;;;;3.67;2.70;;;-0.30;40.60;;;;;;5067072;28;46755;-80
2024/01/30 05:26:57;;;;;;;7.87;3.77;;;-0.30;40.80;;;;;;5063995;27;46500;-81
2024/01/30 05:29:24;;;;;;;4.33;2.90;;;-0.30;40.90;;;;;;5064802;27;46467;-78
2024/01/30 05:31:49;;;;;;;5.65;3.03;;;-0.30;40.90;;;;;;5064011;28;46819;-79
2024/01/30 05:34:15;;;;;;;4.67;3.20;;;-0.30;41.00;;;;;;5066097;28;46491;-79
2024/01/30 05:36:41;;;;;;;4.90;2.70;;;-0.30;41.00;;;;;;5057658;28;45856;-79
2024/01/30 05:39:07;;;;;;;4.17;2.97;;;-0.30;40.90;;;;;;5063286;28;46597;-82
2024/01/30 05:41:32;;;;;;;5.53;3.03;;;-0.40;40.90;;;;;;5066726;28;47056;-82
2024/01/30 05:43:58;;;;;;;8.03;3.10;;;-0.40;41.00;;;;;;5066273;28;45865;-79
2024/01/30 05:46:23;;;;;;;3.30;2.67;;;-0.40;41.40;;;;;;5064529;28;46889;-80
2024/01/30 05:48:49;;;;;;;7.13;3.70;;;-0.50;41.50;;;;;;5066959;28;46645;-81
2024/01/30 05:51:14;;;;;;;4.67;2.70;;;-0.50;41.60;;;;;;5048553;28;47479;-81
2024/01/30 05:53:40;;;;;;;5.70;3.00;;;-0.50;42.80;;;;;;5067191;28;46809;-80
2024/01/30 05:56:06;;;;;;;6.97;3.20;;;-0.50;41.60;;;;;;5048087;28;46463;-80
2024/01/30 05:58:32;;;;;;;7.47;3.17;;;-0.50;41.50;;;;;;5068042;28;46522;-81
2024/01/30 06:00:58;;;;;;;5.33;2.87;;;-0.50;41.40;;;;;;5067662;27;46525;-77
2024/01/30 06:03:23;;;;;;;6.23;3.23;;;-0.50;41.40;;;;;;5069530;28;46473;-81
2024/01/30 06:05:49;;;;;;;7.00;2.90;;;-0.50;41.20;;;;;;5067774;28;46513;-81
2024/01/30 06:08:14;;;;;;;3.40;2.63;;;-0.50;41.30;;;;;;5069196;28;46932;-82
2024/01/30 06:10:40;;;;;;;5.20;2.93;;;-0.40;41.40;;;;;;5067854;27;47045;-79
2024/01/30 06:13:06;;;;;;;6.30;3.27;;;-0.40;41.20;;;;;;5072865;28;46446;-82
2024/01/30 06:15:32;;;;;;;6.40;2.90;;;-0.40;41.10;;;;;;5068717;28;45804;-82
2024/01/30 06:17:58;;;;;;;5.68;3.25;;;-0.40;41.10;;;;;;5071542;28;46386;-81
2024/01/30 06:20:24;;;;;;;7.53;3.67;;;-0.40;41.10;;;;;;5048867;28;48193;-83
2024/01/30 06:22:49;;;;;;;14.80;6.73;;;-0.40;41.10;;;;;;5067728;28;46517;-80
2024/01/30 06:25:16;;;;;;;27.93;10.93;;;-0.40;41.00;;;;;;5067421;27;46894;-79
2024/01/30 06:27:42;;;;;;;46.30;19.65;;;-0.40;40.90;;;;;;5069065;28;47007;-80
2024/01/30 06:30:08;;;;;;;25.23;11.10;;;-0.40;40.90;;;;;;5067391;28;46619;-80
2024/01/30 06:32:34;;;;;;;20.40;7.93;;;-0.40;41.00;;;;;;5067032;27;46472;-81
2024/01/30 06:35:01;;;;;;;12.77;6.20;;;-0.40;41.10;;;;;;5049978;28;47074;-79
2024/01/30 06:37:26;;;;;;;16.35;8.18;;;-0.30;41.10;;;;;;5067344;28;46113;-80
2024/01/30 06:39:52;;;;;;;20.10;8.67;;;-0.30;41.10;;;;;;5050403;28;47980;-78
2024/01/30 06:42:18;;;;;;;11.60;7.00;;;-0.30;41.10;;;;;;5070462;28;45928;-80
2024/01/30 06:44:44;;;;;;;10.53;5.60;;;-0.30;40.90;;;;;;5067547;28;46751;-79
2024/01/30 06:47:09;;;;;;;28.07;7.60;;;-0.30;41.00;;;;;;5067272;28;46570;-80
2024/01/30 06:49:38;;;;;;;10.93;5.57;;;-0.30;40.90;;;;;;5067689;28;46733;-79
2024/01/30 06:52:06;;;;;;;15.23;6.13;;;-0.30;40.80;;;;;;5054711;28;46730;-80
2024/01/30 06:54:32;;;;;;;11.73;6.13;;;-0.20;40.90;;;;;;5066092;28;46446;-80
2024/01/30 06:56:58;;;;;;;12.75;5.10;;;-0.20;40.90;;;;;;5067638;27;47054;-80
2024/01/30 06:59:24;;;;;;;12.13;6.20;;;-0.20;41.00;;;;;;5065410;28;46959;-79
2024/01/30 07:01:50;;;;;;;14.47;6.70;;;-0.20;40.80;;;;;;5065631;28;45942;-80
2024/01/30 07:04:16;;;;;;;10.73;4.17;;;-0.20;40.80;;;;;;5064978;28;46534;-80
2024/01/30 07:06:42;;;;;;;11.20;3.78;;;-0.20;40.80;;;;;;5064845;28;46282;-80
2024/01/30 07:09:08;;;;;;;6.43;4.00;;;-0.20;40.70;;;;;;5067214;28;46153;-78
2024/01/30 07:11:34;;;;;;;11.45;4.22;;;-0.10;40.60;;;;;;5067122;28;46594;-79
2024/01/30 07:13:59;;;;;;;8.33;4.10;;;0.00;40.50;;;;;;5065520;28;46587;-79
2024/01/30 07:16:25;;;;;;;8.23;4.10;;;0.10;40.50;;;;;;5066264;28;46791;-78
2024/01/30 07:18:51;;;;;;;6.90;3.57;;;0.10;40.30;;;;;;5068929;28;46201;-79
2024/01/30 07:21:17;;;;;;;6.03;3.77;;;0.20;40.20;;;;;;5064836;28;46486;-78
2024/01/30 07:23:42;;;;;;;6.43;3.80;;;0.20;40.00;;;;;;5055778;27;46527;-77
2024/01/30 07:26:09;;;;;;;7.83;4.30;;;0.30;41.20;;;;;;5064832;27;46633;-77
2024/01/30 07:28:35;;;;;;;5.18;3.67;;;0.30;41.10;;;;;;5065282;27;47283;-77
2024/01/30 07:31:01;;;;;;;6.38;3.83;;;0.40;39.90;;;;;;5064054;28;45925;-79
2024/01/30 07:33:26;;;;;;;8.30;3.80;;;0.30;39.90;;;;;;5058271;27;46577;-77
2024/01/30 07:35:53;;;;;;;5.77;3.10;;;0.40;40.00;;;;;;5065331;28;46730;-77
2024/01/30 07:38:19;;;;;;;10.30;4.55;;;0.40;40.00;;;;;;5064382;28;47092;-78
2024/01/30 07:40:44;;;;;;;9.77;4.80;;;0.50;40.10;;;;;;5066441;27;46720;-80
2024/01/30 07:43:10;;;;;;;8.97;4.83;;;0.50;40.10;;;;;;5062670;28;46890;-76
2024/01/30 07:45:37;;;;;;;9.50;4.20;;;0.60;40.00;;;;;;5066482;28;46796;-78
2024/01/30 07:48:03;;;;;;;10.60;3.47;;;0.70;39.90;;;;;;5061882;28;46996;-77
2024/01/30 07:50:28;;;;;;;7.13;2.97;;;0.80;39.60;;;;;;5053879;28;47371;-78
2024/01/30 07:52:56;;;;;;;4.07;2.50;;;0.90;40.70;;;;;;5063149;28;45918;-78
2024/01/30 07:55:27;;;;;;;8.82;2.88;;;1.00;39.20;;;;;;5066345;28;46594;-78
2024/01/30 07:57:53;;;;;;;3.38;2.47;;;1.10;39.00;;;;;;5063245;28;46739;-77
2024/01/30 08:00:22;;;;;;;6.30;2.30;;;1.20;39.00;;;;;;5062925;28;46622;-79
2024/01/30 08:02:48;;;;;;;4.20;2.72;;;1.30;38.90;;;;;;5045273;28;46858;-78
2024/01/30 08:05:15;;;;;;;4.43;2.60;;;1.40;38.80;;;;;;5065452;28;46532;-77
2024/01/30 08:07:42;;;;;;;5.15;2.88;;;1.50;38.70;;;;;;5059889;28;46342;-78
2024/01/30 08:10:08;;;;;;;5.15;2.60;;;1.60;38.60;;;;;;5074413;28;46501;-78
2024/01/30 08:12:34;;;;;;;5.22;2.70;;;1.70;38.40;;;;;;5063490;28;45873;-79
2024/01/30 08:15:00;;;;;;;5.20;2.77;;;1.90;38.50;;;;;;5069869;28;46427;-79
2024/01/30 08:17:25;;;;;;;5.47;2.45;;;1.90;38.20;;;;;;5069133;28;46455;-77
2024/01/30 08:19:51;;;;;;;5.67;2.60;;;2.10;38.30;;;;;;5061339;28;46471;-77
2024/01/30 08:22:17;;;;;;;15.87;7.40;;;2.10;38.10;;;;;;5054964;28;46971;-78
2024/01/30 08:24:42;;;;;;;11.13;6.30;;;2.20;38.10;;;;;;5057447;28;46654;-78
2024/01/30 08:27:09;;;;;;;12.30;6.90;;;2.40;38.20;;;;;;5066310;28;46750;-79
2024/01/30 08:29:35;;;;;;;14.85;8.30;;;2.50;38.10;;;;;;5063803;28;46380;-78
2024/01/30 08:32:01;;;;;;;14.85;9.20;;;2.70;38.10;;;;;;5068067;28;46309;-77
2024/01/30 08:34:27;;;;;;;13.70;6.53;;;2.80;38.10;;;;;;5050271;28;46935;-77
2024/01/30 08:36:52;;;;;;;4.80;3.10;;;2.90;38.00;;;;;;5055359;28;48022;-75
2024/01/30 08:39:18;;;;;;;6.10;3.43;;;3.10;37.90;;;;;;5063825;28;46771;-80
2024/01/30 08:41:43;;;;;;;12.70;3.27;;;3.20;37.90;;;;;;5066720;27;46529;-78
2024/01/30 08:44:11;;;;;;;6.23;2.93;;;3.30;37.70;;;;;;5060638;28;46669;-78
2024/01/30 08:46:36;;;;;;;5.45;3.45;;;3.40;37.70;;;;;;5061126;27;46850;-80
2024/01/30 08:49:03;;;;;;;4.27;2.40;;;3.60;38.80;;;;;;5066697;28;46497;-79
2024/01/30 08:51:28;;;;;;;10.05;5.00;;;3.80;37.40;;;;;;5057815;28;46505;-78
2024/01/30 08:53:54;;;;;;;5.50;4.10;;;3.90;37.40;;;;;;5064665;28;46865;-79
2024/01/30 08:56:19;;;;;;;9.33;4.43;;;4.00;37.50;;;;;;5066426;28;46995;-79
2024/01/30 08:58:45;;;;;;;9.57;4.80;;;4.20;37.40;;;;;;5067653;27;46532;-78
2024/01/30 09:01:10;;;;;;;6.80;3.77;;;4.40;37.60;;;;;;5064186;27;45926;-78
2024/01/30 09:03:39;;;;;;;6.20;3.00;;;4.50;37.40;;;;;;5062069;28;46567;-79
2024/01/30 09:06:10;;;;;;;7.43;3.70;;;4.60;37.40;;;;;;5064390;28;47245;-77
2024/01/30 09:08:36;;;;;;;10.75;3.88;;;4.90;37.20;;;;;;5061736;28;46412;-76
2024/01/30 09:11:12;;;;;;;6.30;3.63;;;5.00;37.00;;;;;;5063290;28;46668;-79
2024/01/30 09:13:38;;;;;;;6.27;3.43;;;5.20;37.00;;;;;;5042123;28;46540;-77
2024/01/30 09:16:04;;;;;;;7.37;4.10;;;5.40;36.70;;;;;;5064229;28;46484;-76
2024/01/30 09:18:30;;;;;;;7.07;4.00;;;5.50;36.30;;;;;;5064658;27;46542;-77
2024/01/30 09:20:56;;;;;;;6.50;3.97;;;5.70;36.10;;;;;;5065770;28;46552;-78
2024/01/30 09:23:21;;;;;;;5.90;3.47;;;5.90;35.90;;;;;;5064735;28;46068;-78
2024/01/30 09:25:47;;;;;;;6.63;3.20;;;6.00;36.00;;;;;;5046169;28;49247;-78
2024/01/30 09:28:13;;;;;;;8.77;3.10;;;6.10;36.10;;;;;;5065472;28;46799;-79
2024/01/30 09:30:38;;;;;;;6.00;3.33;;;6.20;36.10;;;;;;5063032;28;47021;-78
2024/01/30 09:33:04;;;;;;;6.80;3.63;;;6.30;36.00;;;;;;5055244;27;46445;-80
2024/01/30 09:35:30;;;;;;;4.50;3.13;;;6.40;35.70;;;;;;5060728;28;48272;-76
2024/01/30 09:37:56;;;;;;;4.67;2.87;;;6.60;35.40;;;;;;5046626;28;46176;-77
2024/01/30 09:40:22;;;;;;;7.80;3.30;;;6.70;35.40;;;;;;5065930;28;46349;-80
2024/01/30 09:42:50;;;;;;;6.87;3.10;;;6.80;35.10;;;;;;5060012;27;46604;-79
2024/01/30 09:45:18;;;;;;;4.53;2.50;;;6.90;35.00;;;;;;5064057;27;46560;-77
2024/01/30 09:47:45;;;;;;;7.37;3.27;;;7.00;34.80;;;;;;5065461;28;46779;-78
2024/01/30 09:50:11;;;;;;;5.13;3.10;;;7.10;34.60;;;;;;5044075;28;46592;-79
2024/01/30 09:52:37;;;;;;;3.87;3.07;;;7.30;34.40;;;;;;5058908;27;46542;-75
2024/01/30 09:55:04;;;;;;;5.40;3.40;;;7.30;34.40;;;;;;5060159;28;48073;-79
2024/01/30 09:57:30;;;;;;;7.70;3.37;;;7.50;34.30;;;;;;5065139;27;46790;-79
2024/01/30 09:59:55;;;;;;;7.03;3.10;;;7.60;34.00;;;;;;5066986;27;46550;-79
2024/01/30 10:02:22;;;;;;;5.23;2.60;;;7.80;33.80;;;;;;5065460;28;46597;-77
2024/01/30 10:04:49;;;;;;;4.87;2.50;;;7.90;33.40;;;;;;5067217;27;47191;-78
2024/01/30 10:07:15;;;;;;;5.93;2.43;;;8.00;33.00;;;;;;5051925;28;46507;-77
2024/01/30 10:09:40;;;;;;;5.97;2.90;;;8.30;32.50;;;;;;5067305;27;47379;-79
2024/01/30 10:12:07;;;;;;;8.63;3.20;;;8.40;32.10;;;;;;5066432;28;46442;-78
2024/01/30 10:14:33;;;;;;;10.20;4.63;;;8.60;31.50;;;;;;5064906;28;47063;-78
2024/01/30 10:16:59;;;;;;;6.50;3.58;;;8.80;31.00;;;;;;5068324;28;46617;-77
2024/01/30 10:19:25;;;;;;;5.03;2.50;;;9.00;27.20;;;;;;5070287;28;47983;-77
2024/01/30 10:21:50;;;;;;;5.73;2.83;;;9.20;27.30;;;;;;5070661;27;46925;-79
2024/01/30 10:24:17;;;;;;;6.50;2.70;;;9.30;27.20;;;;;;5067201;28;46939;-78
2024/01/30 10:26:44;;;;;;;6.20;2.63;;;9.50;26.80;;;;;;5069753;28;45930;-78
2024/01/30 10:29:09;;;;;;;8.20;2.30;;;9.60;26.60;;;;;;5052344;28;46606;-78
2024/01/30 10:31:35;;;;;;;7.50;2.30;;;9.70;26.70;;;;;;5069150;28;46428;-79
2024/01/30 10:34:00;;;;;;;4.77;2.23;;;9.70;26.70;;;;;;5050856;27;48342;-80
2024/01/30 10:36:29;;;;;;;5.83;2.60;;;9.80;26.70;;;;;;5066935;27;46443;-79
2024/01/30 10:38:59;;;;;;;10.17;2.87;;;9.80;26.70;;;;;;5069112;28;46220;-78
2024/01/30 10:41:27;;;;;;;7.73;3.00;;;10.00;25.30;;;;;;5051047;27;47555;-78
2024/01/30 10:44:02;;;;;;;9.33;3.60;;;10.20;25.10;;;;;;5062977;28;48412;-78
2024/01/30 10:46:32;;;;;;;10.60;3.13;;;10.30;24.80;;;;;;5069301;27;46519;-79
2024/01/30 10:49:01;;;;;;;8.40;3.03;;;10.40;24.50;;;;;;5066512;27;46431;-79
2024/01/30 10:51:28;;;;;;;3.60;2.33;;;10.60;24.20;;;;;;5056147;28;45879;-80
2024/01/30 10:53:54;;;;;;;5.27;2.50;;;10.70;23.80;;;;;;5051373;28;46617;-76
2024/01/30 10:56:23;;;;;;;10.30;3.23;;;10.90;23.40;;;;;;5065736;28;46453;-80
2024/01/30 10:58:53;;;;;;;6.67;3.00;;;11.00;23.10;;;;;;5064433;28;46435;-81
2024/01/30 11:01:22;;;;;;;4.60;2.20;;;11.10;22.70;;;;;;5055076;28;47141;-77
2024/01/30 11:03:52;;;;;;;4.67;2.40;;;11.20;22.80;;;;;;5061306;27;46414;-75
2024/01/30 11:06:18;;;;;;;4.00;2.17;;;11.20;22.70;;;;;;5068782;28;46431;-78
2024/01/30 11:08:59;;;;;;;7.67;2.40;;;11.30;22.50;;;;;;5065643;28;46467;-77
2024/01/30 11:11:25;;;;;;;4.07;1.97;;;11.30;22.30;;;;;;5067661;27;46515;-78
2024/01/30 11:13:51;;;;;;;4.77;2.63;;;11.30;22.30;;;;;;5045347;28;50390;-81
2024/01/30 11:16:17;;;;;;;6.43;3.00;;;11.30;22.20;;;;;;5068775;27;46513;-78
2024/01/30 11:18:42;;;;;;;9.47;4.00;;;11.30;22.00;;;;;;5070591;28;46510;-80
2024/01/30 11:21:08;;;;;;;24.63;9.60;;;11.30;21.70;;;;;;5074849;28;46519;-78
2024/01/30 11:23:35;;;;;;;15.47;8.13;;;11.40;21.50;;;;;;5064606;28;46344;-78
2024/01/30 11:26:00;;;;;;;22.53;11.90;;;11.50;21.20;;;;;;5064663;27;46237;-80
2024/01/30 11:28:33;;;;;;;16.57;6.97;;;11.50;21.00;;;;;;5067535;27;45894;-78
2024/01/30 11:31:07;;;;;;;9.10;4.20;;;11.60;20.60;;;;;;5065298;28;46318;-78
2024/01/30 11:33:34;;;;;;;8.07;4.40;;;11.70;20.20;;;;;;5044786;28;49439;-78
2024/01/30 11:36:01;;;;;;;12.43;6.70;;;11.90;20.30;;;;;;5065058;28;46482;-79
2024/01/30 11:38:27;;;;;;;25.40;11.67;;;12.00;19.80;;;;;;5056653;28;46630;-81
2024/01/30 11:40:55;;;;;;;12.80;6.57;;;12.10;19.50;;;;;;5065398;28;46808;-80
2024/01/30 11:43:21;;;;;;;12.43;5.13;;;12.30;19.10;;;;;;5063121;28;46513;-79
2024/01/30 11:45:46;;;;;;;9.53;4.40;;;12.40;18.70;;;;;;5062779;27;46467;-80
2024/01/30 11:48:13;;;;;;;5.83;3.17;;;12.50;18.20;;;;;;5071747;28;46486;-79
2024/01/30 11:50:40;;;;;;;10.17;5.60;;;12.60;17.60;;;;;;5067167;28;46587;-77
2024/01/30 11:53:06;;;;;;;5.20;2.97;;;12.70;17.20;;;;;;5062196;28;47663;-78
2024/01/30 11:55:32;;;;;;;7.90;3.40;;;12.70;17.20;;;;;;5064388;28;46433;-79
2024/01/30 11:57:58;;;;;;;4.70;2.70;;;12.80;17.40;;;;;;5048394;28;46494;-78
2024/01/30 12:00:25;;;;;;;5.40;3.40;;;12.90;17.40;;;;;;5066000;28;46412;-80
2024/01/30 12:02:55;;;;;;;6.37;3.17;;;13.00;16.90;;;;;;5060613;28;46633;-79
2024/01/30 12:05:24;;;;;;;4.90;2.90;;;13.00;16.50;;;;;;5046195;28;46499;-79
2024/01/30 12:07:50;;;;;;;6.63;2.97;;;13.10;16.20;;;;;;5063659;28;46499;-78
2024/01/30 12:10:16;;;;;;;6.83;2.67;;;13.10;16.00;;;;;;5069038;27;46377;-78
2024/01/30 12:12:43;;;;;;;11.10;2.53;;;13.20;16.90;;;;;;5045416;28;48200;-78
2024/01/30 12:15:10;;;;;;;7.80;2.93;;;13.20;15.80;;;;;;5065622;28;46031;-81
2024/01/30 12:17:36;;;;;;;4.40;2.57;;;13.20;15.80;;;;;;5051058;28;46305;-78
2024/01/30 12:20:08;;;;;;;5.33;2.50;;;13.30;15.90;;;;;;5067180;28;46559;-79
2024/01/30 12:22:38;;;;;;;6.73;2.90;;;13.30;15.80;;;;;;5060933;27;46578;-79
2024/01/30 12:25:18;;;;;;;4.50;2.63;;;13.30;15.80;;;;;;5063705;28;46838;-80
2024/01/30 12:27:46;;;;;;;4.10;2.40;;;13.50;15.50;;;;;;5063925;28;46451;-78
2024/01/30 12:30:14;;;;;;;4.90;2.50;;;13.50;15.60;;;;;;5064706;28;46725;-79
2024/01/30 12:32:43;;;;;;;5.70;2.50;;;13.40;15.80;;;;;;5061423;28;46451;-80
2024/01/30 12:35:13;;;;;;;6.00;2.07;;;13.40;15.80;;;;;;5063311;28;46627;-80
2024/01/30 12:37:39;;;;;;;4.80;2.40;;;13.50;15.70;;;;;;5064433;28;46496;-80
2024/01/30 12:40:09;;;;;;;6.73;2.03;;;13.60;15.50;;;;;;5075413;28;46731;-80
2024/01/30 12:42:35;;;;;;;9.20;3.00;;;13.60;15.20;;;;;;5074138;27;46608;-77